createdAt,value
2023-12-17T00:00:50.830Z,102313.03
2023-12-17T00:03:20.739Z,102311.28
2023-12-17T00:05:49.919Z,102306.22
2023-12-17T00:08:21.978Z,102300.28
2023-12-17T00:10:50.418Z,102287.91
2023-12-17T00:13:20.748Z,102297.19
2023-12-17T00:15:48.750Z,102309.59
2023-12-17T00:18:16.893Z,102298.88
2023-12-17T00:20:45.282Z,102303.94
2023-12-17T00:23:13.098Z,102302.91
2023-12-17T00:25:41.083Z,102291.66
2023-12-17T00:28:08.957Z,102281.53
2023-12-17T00:30:38.552Z,102275.41
2023-12-17T00:33:06.908Z,102268.84
2023-12-17T00:35:35.462Z,102269.50
2023-12-17T00:38:03.397Z,102266.88
2023-12-17T00:40:31.262Z,102260.59
2023-12-17T00:42:59.370Z,102264.25
2023-12-17T00:45:27.199Z,102262.75
2023-12-17T00:47:56.451Z,102262.94
2023-12-17T00:50:24.562Z,102265.94
2023-12-17T00:52:52.533Z,102274.78
2023-12-17T00:55:20.481Z,102271.50
2023-12-17T00:57:48.233Z,102265.66
2023-12-17T01:00:16.938Z,102260.97
2023-12-17T01:02:45.183Z,102259.81
2023-12-17T01:05:14.507Z,102261.81
2023-12-17T01:07:42.573Z,102268.63
2023-12-17T01:10:10.669Z,102264.88
2023-12-17T01:12:39.088Z,102272.69
2023-12-17T01:15:07.696Z,102277.53
2023-12-17T01:17:35.956Z,102280.09
2023-12-17T01:20:04.028Z,102286.81
2023-12-17T01:22:33.271Z,102281.34
2023-12-17T01:25:01.605Z,102282.38
2023-12-17T01:27:29.448Z,102285.28
2023-12-17T01:29:57.926Z,102292.66
2023-12-17T01:32:25.760Z,102290.59
2023-12-17T01:34:54.139Z,102293.78
2023-12-17T01:37:22.201Z,102287.84
2023-12-17T01:39:52.409Z,102284.97
2023-12-17T01:42:20.164Z,102283.47
2023-12-17T01:44:48.251Z,102269.94
2023-12-17T01:47:16.059Z,102274.06
2023-12-17T01:49:44.144Z,102275.00
2023-12-17T01:52:12.052Z,102274.44
2023-12-17T01:54:40.267Z,102272.94
2023-12-17T01:57:09.714Z,102279.88
2023-12-17T01:59:38.164Z,102280.97
2023-12-17T02:02:06.103Z,102271.59
2023-12-17T02:04:33.991Z,102285.84
2023-12-17T02:07:02.300Z,102282.34
2023-12-17T02:09:30.136Z,102280.63
2023-12-17T02:11:58.258Z,102276.31
2023-12-17T02:14:27.909Z,102279.53
2023-12-17T02:16:55.803Z,102279.03
2023-12-17T02:19:23.959Z,102282.94
2023-12-17T02:21:52.019Z,102251.72
2023-12-17T02:24:21.178Z,102265.13
2023-12-17T02:26:48.968Z,102266.78
2023-12-17T02:29:16.792Z,102272.16
2023-12-17T02:31:44.633Z,102269.53
2023-12-17T02:34:12.880Z,102266.09
2023-12-17T02:36:43.744Z,102271.47
2023-12-17T02:39:12.174Z,102271.84
2023-12-17T02:41:41.288Z,102274.38
2023-12-17T02:44:09.334Z,102271.34
2023-12-17T02:46:37.111Z,102262.81
2023-12-17T02:49:05.323Z,102273.56
2023-12-17T02:51:33.193Z,102270.25
2023-12-17T02:54:01.305Z,102276.38
2023-12-17T02:56:29.067Z,102279.28
2023-12-17T02:58:58.393Z,102281.84
2023-12-17T03:01:26.185Z,102288.19
2023-12-17T03:03:54.170Z,102278.69
2023-12-17T03:06:22.213Z,102276.41
2023-12-17T03:08:50.005Z,102263.47
2023-12-17T03:11:18.036Z,102251.88
2023-12-17T03:13:46.164Z,102256.28
2023-12-17T03:16:15.507Z,102244.25
2023-12-17T03:18:43.834Z,102248.50
2023-12-17T03:21:14.115Z,102249.34
2023-12-17T03:23:41.898Z,102240.31
2023-12-17T03:26:10.028Z,102240.75
2023-12-17T03:28:37.886Z,102246.31
2023-12-17T03:31:06.539Z,102240.75
2023-12-17T03:33:35.820Z,102237.94
2023-12-17T03:36:03.654Z,102234.28
2023-12-17T03:38:31.715Z,102231.69
2023-12-17T03:40:59.441Z,102218.75
2023-12-17T03:43:27.455Z,102217.56
2023-12-17T03:45:55.308Z,102215.19
2023-12-17T03:48:23.444Z,102215.63
2023-12-17T03:50:52.840Z,102222.22
2023-12-17T03:53:20.805Z,102222.88
2023-12-17T03:55:48.576Z,102216.59
2023-12-17T03:58:16.581Z,102222.63
2023-12-17T04:00:44.382Z,102220.78
2023-12-17T04:03:12.195Z,102228.56
2023-12-17T04:05:39.982Z,102210.16
2023-12-17T04:08:09.130Z,102226.31
2023-12-17T04:10:37.332Z,102226.94
2023-12-17T04:13:05.131Z,102214.97
2023-12-17T04:15:33.106Z,102219.44
2023-12-17T04:18:01.010Z,102223.97
2023-12-17T04:20:29.062Z,102225.06
2023-12-17T04:22:56.800Z,102225.66
2023-12-17T04:25:26.479Z,102228.09
2023-12-17T04:27:54.396Z,102224.53
2023-12-17T04:30:22.267Z,102226.94
2023-12-17T04:32:50.356Z,102222.22
2023-12-17T04:35:18.343Z,102221.00
2023-12-17T04:37:46.583Z,102223.47
2023-12-17T04:40:15.693Z,102229.34
2023-12-17T04:42:45.505Z,102231.28
2023-12-17T04:45:13.293Z,102231.38
2023-12-17T04:47:41.530Z,102229.09
2023-12-17T04:50:10.533Z,102218.78
2023-12-17T04:52:38.306Z,102211.66
2023-12-17T04:55:07.381Z,102217.50
2023-12-17T04:57:35.261Z,102220.56
2023-12-17T05:00:07.012Z,102222.75
2023-12-17T05:02:34.962Z,102228.28
2023-12-17T05:05:02.847Z,102221.94
2023-12-17T05:07:30.914Z,102225.00
2023-12-17T05:09:59.088Z,102218.16
2023-12-17T05:12:27.205Z,102232.41
2023-12-17T05:14:55.033Z,102222.03
2023-12-17T05:17:24.726Z,102220.91
2023-12-17T05:19:52.790Z,102214.13
2023-12-17T05:22:20.822Z,102209.25
2023-12-17T05:24:49.774Z,102211.78
2023-12-17T05:27:17.756Z,102214.66
2023-12-17T05:29:45.818Z,102201.88
2023-12-17T05:32:13.586Z,102210.91
2023-12-17T05:34:42.724Z,102207.88
2023-12-17T05:37:10.521Z,102204.03
2023-12-17T05:39:38.627Z,102208.63
2023-12-17T05:42:06.741Z,102216.22
2023-12-17T05:44:34.539Z,102214.41
2023-12-17T05:47:02.509Z,102212.81
2023-12-17T05:49:30.410Z,102215.06
2023-12-17T05:51:59.917Z,102213.84
2023-12-17T05:54:27.789Z,102224.84
2023-12-17T05:56:55.985Z,102219.06
2023-12-17T05:59:24.896Z,102213.13
2023-12-17T06:01:52.961Z,102214.28
2023-12-17T06:04:21.833Z,102220.44
2023-12-17T06:06:49.774Z,102218.00
2023-12-17T06:09:19.520Z,102211.13
2023-12-17T06:11:47.313Z,102207.50
2023-12-17T06:14:15.097Z,102214.34
2023-12-17T06:16:43.629Z,102212.22
2023-12-17T06:19:11.767Z,102210.03
2023-12-17T06:21:39.894Z,102152.94
2023-12-17T06:24:08.831Z,102208.47
2023-12-17T06:26:38.212Z,102193.59
2023-12-17T06:29:06.024Z,102149.94
2023-12-17T06:31:34.123Z,102216.69
2023-12-17T06:34:02.162Z,102219.38
2023-12-17T06:36:30.286Z,102227.19
2023-12-17T06:38:58.071Z,102222.25
2023-12-17T06:41:26.100Z,102219.56
2023-12-17T06:43:55.477Z,102221.97
2023-12-17T06:46:23.313Z,102217.38
2023-12-17T06:48:51.912Z,102223.78
2023-12-17T06:51:20.326Z,102223.09
2023-12-17T06:53:51.142Z,102226.59
2023-12-17T06:56:20.380Z,102232.56
2023-12-17T06:58:48.311Z,102227.69
2023-12-17T07:01:17.802Z,102224.31
2023-12-17T07:03:45.610Z,102223.56
2023-12-17T07:06:13.760Z,102146.09
2023-12-17T07:08:42.758Z,102218.97
2023-12-17T07:11:11.132Z,102214.66
2023-12-17T07:13:39.071Z,102217.19
2023-12-17T07:16:08.029Z,102214.34
2023-12-17T07:18:37.487Z,102213.84
2023-12-17T07:21:06.103Z,102214.50
2023-12-17T07:23:33.935Z,102206.47
2023-12-17T07:26:01.633Z,102219.81
2023-12-17T07:28:29.398Z,102218.91
2023-12-17T07:30:57.488Z,102218.16
2023-12-17T07:33:25.879Z,102208.63
2023-12-17T07:35:55.279Z,102205.69
2023-12-17T07:38:23.294Z,102206.72
2023-12-17T07:40:51.047Z,102210.44
2023-12-17T07:43:19.279Z,102200.25
2023-12-17T07:45:47.016Z,102204.34
2023-12-17T07:48:15.204Z,102199.94
2023-12-17T07:50:43.662Z,102201.47
2023-12-17T07:53:13.133Z,102201.94
2023-12-17T07:55:40.990Z,102211.66
2023-12-17T07:58:09.944Z,102206.56
2023-12-17T08:00:37.835Z,102204.78
2023-12-17T08:03:05.705Z,102208.91
2023-12-17T08:05:33.956Z,102210.44
2023-12-17T08:08:01.876Z,102205.09
2023-12-17T08:10:31.520Z,102210.91
2023-12-17T08:13:00.106Z,102214.69
2023-12-17T08:15:28.079Z,102207.75
2023-12-17T08:17:56.544Z,102215.44
2023-12-17T08:20:24.420Z,102216.50
2023-12-17T08:22:52.219Z,102220.88
2023-12-17T08:25:20.629Z,102222.41
2023-12-17T08:27:49.692Z,102221.28
2023-12-17T08:30:19.257Z,102219.22
2023-12-17T08:32:47.240Z,102221.84
2023-12-17T08:35:16.467Z,102213.31
2023-12-17T08:37:44.312Z,102221.84
2023-12-17T08:40:13.410Z,102222.72
2023-12-17T08:42:42.708Z,102230.75
2023-12-17T08:45:13.299Z,102226.25
2023-12-17T08:47:42.292Z,102227.09
2023-12-17T08:50:10.789Z,102230.41
2023-12-17T08:52:39.122Z,102227.50
2023-12-17T08:55:08.168Z,102226.81
2023-12-17T08:57:36.049Z,102234.47
2023-12-17T09:00:06.339Z,102238.13
2023-12-17T09:02:36.120Z,102245.78
2023-12-17T09:05:04.421Z,102150.56
2023-12-17T09:07:32.513Z,102235.66
2023-12-17T09:10:00.765Z,102232.88
2023-12-17T09:12:29.212Z,102229.44
2023-12-17T09:14:57.222Z,102232.13
2023-12-17T09:17:25.902Z,102229.06
2023-12-17T09:19:55.636Z,102230.03
2023-12-17T09:22:23.495Z,102234.81
2023-12-17T09:24:51.770Z,102237.38
2023-12-17T09:27:20.522Z,102243.00
2023-12-17T09:29:48.313Z,102241.13
2023-12-17T09:32:16.396Z,102234.59
2023-12-17T09:34:44.230Z,102240.78
2023-12-17T09:37:13.721Z,102242.00
2023-12-17T09:39:41.480Z,102235.91
2023-12-17T09:42:09.760Z,102227.41
2023-12-17T09:44:37.712Z,102235.03
2023-12-17T09:47:06.470Z,102235.50
2023-12-17T09:49:34.508Z,102238.63
2023-12-17T09:52:08.351Z,102243.81
2023-12-17T09:54:37.571Z,102240.47
2023-12-17T09:57:08.588Z,102233.94
2023-12-17T09:59:36.694Z,102233.94
2023-12-17T10:02:04.720Z,102236.13
2023-12-17T10:04:32.821Z,102234.03
2023-12-17T10:07:00.680Z,102169.78
2023-12-17T10:09:29.156Z,102227.09
2023-12-17T10:11:59.496Z,102228.03
2023-12-17T10:14:29.536Z,102225.81
2023-12-17T10:16:57.301Z,102221.38
2023-12-17T10:19:28.113Z,102215.03
2023-12-17T10:21:56.913Z,102221.09
2023-12-17T10:24:36.781Z,102212.09
2023-12-17T10:27:16.084Z,102219.59
2023-12-17T10:29:45.224Z,102213.34
2023-12-17T10:32:13.403Z,102204.47
2023-12-17T10:34:42.968Z,102200.34
2023-12-17T10:37:11.162Z,102200.34
2023-12-17T10:39:40.096Z,102184.78
2023-12-17T10:42:10.703Z,102188.66
2023-12-17T10:44:41.424Z,102187.06
2023-12-17T10:47:10.546Z,102178.94
2023-12-17T10:49:38.728Z,102166.31
2023-12-17T10:52:09.245Z,102174.00
2023-12-17T10:54:37.226Z,102159.03
2023-12-17T10:57:07.793Z,102163.72
2023-12-17T10:59:41.356Z,102157.03
2023-12-17T11:02:12.560Z,102157.66
2023-12-17T11:04:46.358Z,102151.53
2023-12-17T11:07:27.035Z,102149.88
2023-12-17T11:10:02.994Z,102139.91
2023-12-17T11:12:31.406Z,102131.91
2023-12-17T11:15:02.190Z,102129.59
2023-12-17T11:17:30.492Z,102111.03
2023-12-17T11:20:00.550Z,102112.94
2023-12-17T11:22:30.130Z,102115.13
2023-12-17T11:24:59.568Z,102111.41
2023-12-17T11:27:28.222Z,102105.03
2023-12-17T11:29:57.725Z,102102.53
2023-12-17T11:32:28.547Z,102088.94
2023-12-17T11:34:58.179Z,102108.53
2023-12-17T11:37:31.505Z,102101.34
2023-12-17T11:39:59.438Z,102098.44
2023-12-17T11:42:27.368Z,102091.13
2023-12-17T11:44:55.552Z,102081.72
2023-12-17T11:47:28.505Z,102086.16
2023-12-17T11:50:00.841Z,102082.91
2023-12-17T11:52:31.186Z,102055.19
2023-12-17T11:54:59.238Z,102086.72
2023-12-17T11:57:28.457Z,102019.97
2023-12-17T11:59:56.448Z,102082.59
2023-12-17T12:02:28.514Z,102072.75
2023-12-17T12:04:57.804Z,102075.41
2023-12-17T12:07:26.591Z,102071.06
2023-12-17T12:10:07.504Z,102071.28
2023-12-17T12:12:36.008Z,102063.84
2023-12-17T12:15:05.019Z,102070.78
2023-12-17T12:17:41.315Z,102070.06
2023-12-17T12:20:14.068Z,102072.72
2023-12-17T12:22:47.239Z,102062.53
2023-12-17T12:25:21.217Z,102057.28
2023-12-17T12:27:49.322Z,102055.63
2023-12-17T12:30:30.251Z,102045.03
2023-12-17T12:33:09.573Z,102049.06
2023-12-17T12:35:39.257Z,102050.50
2023-12-17T12:38:23.311Z,102028.84
2023-12-17T12:40:52.362Z,102029.34
2023-12-17T12:43:21.294Z,102032.41
2023-12-17T12:45:50.287Z,102027.41
2023-12-17T12:48:19.859Z,102022.19
2023-12-17T12:50:49.976Z,102020.78
2023-12-17T12:53:26.027Z,102021.22
2023-12-17T12:55:55.676Z,102020.00
2023-12-17T12:58:24.149Z,102010.81
2023-12-17T13:00:52.266Z,102008.94
2023-12-17T13:03:21.127Z,102002.31
2023-12-17T13:05:51.469Z,101994.75
2023-12-17T13:08:21.486Z,102000.88
2023-12-17T13:10:49.817Z,101991.25
2023-12-17T13:13:17.839Z,101985.00
2023-12-17T13:15:45.696Z,101990.84
2023-12-17T13:18:13.807Z,101978.56
2023-12-17T13:20:41.902Z,101981.00
2023-12-17T13:23:11.484Z,101977.34
2023-12-17T13:25:40.281Z,101981.41
2023-12-17T13:28:08.330Z,101980.16
2023-12-17T13:30:36.316Z,101981.00
2023-12-17T13:33:05.792Z,101969.97
2023-12-17T13:35:34.527Z,101974.56
2023-12-17T13:38:02.578Z,101968.31
2023-12-17T13:40:31.990Z,101974.25
2023-12-17T13:43:00.880Z,101969.34
2023-12-17T13:45:28.725Z,101967.91
2023-12-17T13:47:56.666Z,101969.44
2023-12-17T13:50:24.750Z,101970.59
2023-12-17T13:52:52.511Z,101960.69
2023-12-17T13:55:20.399Z,101961.53
2023-12-17T13:57:50.173Z,101958.19
2023-12-17T14:00:18.663Z,101965.53
2023-12-17T14:02:46.475Z,101962.16
2023-12-17T14:05:15.104Z,101961.16
2023-12-17T14:07:43.456Z,101957.78
2023-12-17T14:10:12.562Z,101953.59
2023-12-17T14:12:41.663Z,101956.72
2023-12-17T14:15:11.838Z,101961.31
2023-12-17T14:17:39.829Z,101960.53
2023-12-17T14:20:14.103Z,101951.16
2023-12-17T14:22:45.356Z,101960.34
2023-12-17T14:25:14.029Z,101957.59
2023-12-17T14:27:43.766Z,101964.91
2023-12-17T14:30:16.242Z,101966.13
2023-12-17T14:32:44.408Z,101962.41
2023-12-17T14:35:13.349Z,101964.78
2023-12-17T14:37:41.302Z,101965.75
2023-12-17T14:40:10.178Z,101968.72
2023-12-17T14:42:38.532Z,101965.84
2023-12-17T14:45:08.061Z,101970.41
2023-12-17T14:47:38.416Z,101964.44
2023-12-17T14:50:07.442Z,101969.88
2023-12-17T14:52:36.169Z,101965.44
2023-12-17T14:55:04.163Z,101967.13
2023-12-17T14:57:32.905Z,101968.09
2023-12-17T15:00:00.948Z,101956.75
2023-12-17T15:02:30.010Z,101954.84
2023-12-17T15:04:59.182Z,101950.19
2023-12-17T15:07:27.048Z,101950.44
2023-12-17T15:10:01.941Z,101951.63
2023-12-17T15:12:30.251Z,101949.97
2023-12-17T15:14:58.122Z,101943.13
2023-12-17T15:17:26.648Z,101932.19
2023-12-17T15:19:54.941Z,101943.69
2023-12-17T15:22:24.105Z,101947.50
2023-12-17T15:24:52.152Z,101943.78
2023-12-17T15:27:20.172Z,101943.38
2023-12-17T15:29:47.970Z,101943.28
2023-12-17T15:32:16.118Z,101953.69
2023-12-17T15:34:44.032Z,101961.31
2023-12-17T15:37:12.267Z,101948.94
2023-12-17T15:39:42.721Z,101956.31
2023-12-17T15:42:11.006Z,101952.22
2023-12-17T15:44:40.370Z,101954.22
2023-12-17T15:47:08.288Z,101955.63
2023-12-17T15:49:38.941Z,101953.78
2023-12-17T15:52:07.964Z,101959.25
2023-12-17T15:54:36.283Z,101958.97
2023-12-17T15:57:06.272Z,101956.78
2023-12-17T15:59:35.901Z,101964.06
2023-12-17T16:02:04.204Z,101959.44
2023-12-17T16:04:32.790Z,101952.19
2023-12-17T16:07:00.898Z,101964.19
2023-12-17T16:09:29.211Z,101954.28
2023-12-17T16:11:57.190Z,101950.84
2023-12-17T16:14:26.489Z,101947.66
2023-12-17T16:16:54.774Z,101950.09
2023-12-17T16:19:22.660Z,101946.72
2023-12-17T16:21:52.901Z,101946.94
2023-12-17T16:24:21.093Z,101952.28
2023-12-17T16:26:49.386Z,101944.75
2023-12-17T16:29:18.177Z,101955.66
2023-12-17T16:31:47.636Z,101944.19
2023-12-17T16:34:15.554Z,101952.31
2023-12-17T16:36:44.642Z,101953.59
2023-12-17T16:39:13.475Z,101952.94
2023-12-17T16:41:45.596Z,101949.88
2023-12-17T16:44:13.744Z,101950.81
2023-12-17T16:46:41.984Z,101954.72
2023-12-17T16:49:12.034Z,101960.94
2023-12-17T16:51:39.899Z,101950.41
2023-12-17T16:54:08.036Z,101966.28
2023-12-17T16:56:35.881Z,101958.84
2023-12-17T16:59:04.480Z,101959.69
2023-12-17T17:01:32.329Z,101960.94
2023-12-17T17:04:00.542Z,101964.31
2023-12-17T17:06:29.724Z,101944.44
2023-12-17T17:08:57.525Z,101959.44
2023-12-17T17:11:25.624Z,101964.19
2023-12-17T17:13:53.428Z,101959.97
2023-12-17T17:16:22.586Z,101973.09
2023-12-17T17:18:50.616Z,101956.91
2023-12-17T17:21:19.167Z,101961.97
2023-12-17T17:23:48.370Z,101893.09
2023-12-17T17:26:16.617Z,101970.34
2023-12-17T17:28:45.209Z,101964.13
2023-12-17T17:31:13.394Z,101974.13
2023-12-17T17:33:41.437Z,101975.78
2023-12-17T17:36:10.192Z,101979.38
2023-12-17T17:38:39.800Z,101972.34
2023-12-17T17:41:11.315Z,101974.44
2023-12-17T17:43:39.169Z,101973.56
2023-12-17T17:46:07.685Z,101977.56
2023-12-17T17:48:36.323Z,101977.13
2023-12-17T17:51:05.738Z,101964.47
2023-12-17T17:53:34.749Z,101984.78
2023-12-17T17:56:04.752Z,101980.75
2023-12-17T17:58:33.994Z,101994.31
2023-12-17T18:01:01.993Z,101992.31
2023-12-17T18:03:29.879Z,101995.03
2023-12-17T18:05:57.983Z,102002.53
2023-12-17T18:08:26.125Z,101995.78
2023-12-17T18:10:53.853Z,101994.84
2023-12-17T18:13:23.519Z,101998.56
2023-12-17T18:15:53.008Z,101997.00
2023-12-17T18:18:21.307Z,102005.25
2023-12-17T18:20:49.172Z,101998.72
2023-12-17T18:23:17.325Z,102002.59
2023-12-17T18:25:46.291Z,102008.84
2023-12-17T18:28:14.883Z,102006.44
2023-12-17T18:30:44.063Z,102006.34
2023-12-17T18:33:14.175Z,101999.97
2023-12-17T18:35:42.424Z,102002.59
2023-12-17T18:38:10.187Z,102010.22
2023-12-17T18:40:38.370Z,102012.56
2023-12-17T18:43:06.213Z,101997.19
2023-12-17T18:45:34.345Z,102005.91
2023-12-17T18:48:02.649Z,102003.09
2023-12-17T18:50:32.008Z,102009.19
2023-12-17T18:53:00.360Z,102018.31
2023-12-17T18:55:28.201Z,102017.38
2023-12-17T18:57:56.015Z,102014.44
2023-12-17T19:00:23.932Z,102016.50
2023-12-17T19:02:52.116Z,102016.44
2023-12-17T19:05:19.942Z,102010.97
2023-12-17T19:07:49.870Z,102015.94
2023-12-17T19:10:18.629Z,101994.78
2023-12-17T19:12:49.133Z,102000.59
2023-12-17T19:15:17.822Z,102003.28
2023-12-17T19:17:45.715Z,101992.66
2023-12-17T19:20:13.654Z,101998.84
2023-12-17T19:22:41.603Z,101996.63
2023-12-17T19:25:11.312Z,101988.69
2023-12-17T19:27:39.162Z,101992.81
2023-12-17T19:30:09.248Z,101991.25
2023-12-17T19:32:37.172Z,101992.88
2023-12-17T19:35:05.856Z,101990.97
2023-12-17T19:37:33.999Z,101991.16
2023-12-17T19:40:01.952Z,101983.97
2023-12-17T19:42:31.388Z,101988.03
2023-12-17T19:44:59.190Z,101981.84
2023-12-17T19:47:27.038Z,101975.25
2023-12-17T19:49:54.950Z,101975.53
2023-12-17T19:52:23.044Z,101977.34
2023-12-17T19:54:50.879Z,101976.22
2023-12-17T19:57:18.728Z,101975.09
2023-12-17T19:59:50.081Z,101969.00
2023-12-17T20:02:17.922Z,101972.44
2023-12-17T20:04:45.910Z,101959.50
2023-12-17T20:07:14.160Z,101954.66
2023-12-17T20:09:42.327Z,101882.81
2023-12-17T20:12:10.359Z,101945.66
2023-12-17T20:14:38.580Z,101946.16
2023-12-17T20:17:07.861Z,101943.81
2023-12-17T20:19:35.943Z,101939.28
2023-12-17T20:22:03.822Z,101925.72
2023-12-17T20:24:31.933Z,101930.31
2023-12-17T20:26:59.765Z,101931.91
2023-12-17T20:29:27.491Z,101927.13
2023-12-17T20:31:56.440Z,101932.50
2023-12-17T20:34:25.908Z,101930.16
2023-12-17T20:36:54.020Z,101924.28
2023-12-17T20:39:21.790Z,101946.47
2023-12-17T20:41:49.996Z,101944.25
2023-12-17T20:44:18.074Z,101927.88
2023-12-17T20:46:47.230Z,101939.88
2023-12-17T20:49:15.235Z,101936.72
2023-12-17T20:51:44.698Z,101932.78
2023-12-17T20:54:12.810Z,101931.28
2023-12-17T20:56:43.654Z,101940.03
2023-12-17T20:59:11.554Z,101950.88
2023-12-17T21:01:39.576Z,101956.25
2023-12-17T21:04:07.487Z,101968.69
2023-12-17T21:06:35.580Z,101963.53
2023-12-17T21:09:05.408Z,101956.91
2023-12-17T21:11:33.316Z,101960.19
2023-12-17T21:14:01.342Z,101951.94
2023-12-17T21:16:29.592Z,101952.78
2023-12-17T21:18:58.113Z,101952.03
2023-12-17T21:21:26.024Z,101947.78
2023-12-17T21:23:53.782Z,101946.13
2023-12-17T21:26:23.389Z,101939.63
2023-12-17T21:28:51.138Z,101938.63
2023-12-17T21:31:19.420Z,101953.06
2023-12-17T21:33:47.302Z,101963.06
2023-12-17T21:36:15.351Z,101958.22
2023-12-17T21:38:44.251Z,101960.72
2023-12-17T21:41:12.334Z,101958.69
2023-12-17T21:43:42.170Z,101960.38
2023-12-17T21:46:11.945Z,101957.84
2023-12-17T21:48:40.078Z,101950.44
2023-12-17T21:51:07.951Z,101956.06
2023-12-17T21:53:35.889Z,101955.47
2023-12-17T21:56:03.771Z,101964.78
2023-12-17T21:58:32.197Z,101966.34
2023-12-17T22:01:01.528Z,101965.44
2023-12-17T22:03:29.832Z,101963.72
2023-12-17T22:05:57.737Z,101961.09
2023-12-17T22:08:25.796Z,101957.75
2023-12-17T22:10:53.662Z,101961.69
2023-12-17T22:13:21.686Z,101970.94
2023-12-17T22:15:49.498Z,101967.84
2023-12-17T22:18:19.068Z,101958.75
2023-12-17T22:20:46.908Z,101957.06
2023-12-17T22:23:14.940Z,101960.47
2023-12-17T22:25:42.743Z,101958.84
2023-12-17T22:28:10.544Z,101965.69
2023-12-17T22:30:38.858Z,101966.16
2023-12-17T22:33:07.038Z,101957.91
2023-12-17T22:35:36.318Z,101952.28
2023-12-17T22:38:04.739Z,101953.97
2023-12-17T22:40:32.831Z,101953.91
2023-12-17T22:43:00.565Z,101953.97
2023-12-17T22:45:28.532Z,101950.78
2023-12-17T22:47:56.425Z,101955.09
2023-12-17T22:50:24.238Z,101946.31
2023-12-17T22:52:53.794Z,101944.22
2023-12-17T22:55:21.629Z,101935.44
2023-12-17T22:57:49.654Z,101943.31
2023-12-17T23:00:19.078Z,101947.34
2023-12-17T23:02:48.490Z,101943.69
2023-12-17T23:05:19.167Z,101940.28
2023-12-17T23:07:47.026Z,101942.38
2023-12-17T23:10:18.775Z,101930.97
2023-12-17T23:12:47.012Z,101930.59
2023-12-17T23:15:14.941Z,101933.47
2023-12-17T23:17:43.123Z,101939.03
2023-12-17T23:20:12.454Z,101930.59
2023-12-17T23:22:40.332Z,101926.84
2023-12-17T23:25:09.089Z,101932.81
2023-12-17T23:27:38.678Z,101929.47
2023-12-17T23:30:08.302Z,101926.00
2023-12-17T23:32:36.918Z,101924.03
2023-12-17T23:35:05.147Z,101928.88
2023-12-17T23:37:33.337Z,101908.88
2023-12-17T23:40:01.099Z,101911.66
2023-12-17T23:42:29.187Z,101908.09
2023-12-17T23:45:06.515Z,101909.22
2023-12-17T23:47:36.548Z,101915.06
2023-12-17T23:50:04.707Z,101904.47
2023-12-17T23:52:33.130Z,101903.81
2023-12-17T23:55:02.198Z,101897.72
2023-12-17T23:57:30.160Z,101898.00
2023-12-17T23:59:59.484Z,101896.78
